sensor_id;sensor_type;location;lat;lon;timestamp;P1;durP1;ratioP1;P2;durP2;ratioP2
10645;SDS011;5371;49.782;9.932;2023-05-10T00:01:34;3.25;;;2.30;;
10645;SDS011;5371;49.782;9.932;2023-05-10T00:04:01;2.83;;;2.60;;
10645;SDS011;5371;49.782;9.932;2023-05-10T00:06:28;3.15;;;2.47;;
10645;SDS011;5371;49.782;9.932;2023-05-10T00:08:57;3.88;;;2.88;;
10645;SDS011;5371;49.782;9.932;2023-05-10T00:11:24;3.35;;;2.30;;
10645;SDS011;5371;49.782;9.932;2023-05-10T00:13:50;2.90;;;2.25;;
10645;SDS011;5371;49.782;9.932;2023-05-10T00:16:17;2.80;;;2.40;;
10645;SDS011;5371;49.782;9.932;2023-05-10T00:18:44;2.83;;;2.10;;
10645;SDS011;5371;49.782;9.932;2023-05-10T00:21:11;3.50;;;2.75;;
10645;SDS011;5371;49.782;9.932;2023-05-10T00:23:38;3.65;;;2.30;;
10645;SDS011;5371;49.782;9.932;2023-05-10T00:26:06;4.05;;;2.47;;
10645;SDS011;5371;49.782;9.932;2023-05-10T00:28:33;3.05;;;2.10;;
10645;SDS011;5371;49.782;9.932;2023-05-10T00:31:01;2.40;;;2.00;;
10645;SDS011;5371;49.782;9.932;2023-05-10T00:33:29;3.70;;;2.22;;
10645;SDS011;5371;49.782;9.932;2023-05-10T00:35:55;3.08;;;2.30;;
10645;SDS011;5371;49.782;9.932;2023-05-10T00:38:23;3.72;;;2.40;;
10645;SDS011;5371;49.782;9.932;2023-05-10T00:40:50;2.50;;;2.22;;
10645;SDS011;5371;49.782;9.932;2023-05-10T00:43:25;2.65;;;2.33;;
10645;SDS011;5371;49.782;9.932;2023-05-10T00:45:52;5.10;;;2.35;;
10645;SDS011;5371;49.782;9.932;2023-05-10T00:48:20;3.47;;;2.70;;
10645;SDS011;5371;49.782;9.932;2023-05-10T00:50:47;6.78;;;2.58;;
10645;SDS011;5371;49.782;9.932;2023-05-10T00:53:14;3.88;;;2.53;;
10645;SDS011;5371;49.782;9.932;2023-05-10T00:55:42;4.60;;;2.55;;
10645;SDS011;5371;49.782;9.932;2023-05-10T00:58:09;3.05;;;2.60;;
10645;SDS011;5371;49.782;9.932;2023-05-10T01:00:38;3.17;;;2.50;;
10645;SDS011;5371;49.782;9.932;2023-05-10T01:03:09;2.50;;;2.30;;
10645;SDS011;5371;49.782;9.932;2023-05-10T01:05:36;4.72;;;2.33;;
10645;SDS011;5371;49.782;9.932;2023-05-10T01:08:03;2.28;;;2.08;;
10645;SDS011;5371;49.782;9.932;2023-05-10T01:10:31;3.80;;;2.05;;
10645;SDS011;5371;49.782;9.932;2023-05-10T01:12:58;3.25;;;2.10;;
10645;SDS011;5371;49.782;9.932;2023-05-10T01:15:25;4.40;;;2.15;;
10645;SDS011;5371;49.782;9.932;2023-05-10T01:17:54;2.92;;;2.10;;
10645;SDS011;5371;49.782;9.932;2023-05-10T01:20:22;3.83;;;1.95;;
10645;SDS011;5371;49.782;9.932;2023-05-10T01:22:55;2.17;;;1.92;;
10645;SDS011;5371;49.782;9.932;2023-05-10T01:25:58;2.75;;;1.77;;
10645;SDS011;5371;49.782;9.932;2023-05-10T01:28:48;2.42;;;1.75;;
10645;SDS011;5371;49.782;9.932;2023-05-10T01:31:35;3.28;;;1.83;;
10645;SDS011;5371;49.782;9.932;2023-05-10T01:34:18;2.30;;;1.83;;
10645;SDS011;5371;49.782;9.932;2023-05-10T01:36:48;2.15;;;1.92;;
10645;SDS011;5371;49.782;9.932;2023-05-10T01:39:23;2.33;;;1.90;;
10645;SDS011;5371;49.782;9.932;2023-05-10T01:41:52;2.60;;;1.60;;
10645;SDS011;5371;49.782;9.932;2023-05-10T01:44:24;3.63;;;1.60;;
10645;SDS011;5371;49.782;9.932;2023-05-10T01:46:56;2.33;;;1.70;;
10645;SDS011;5371;49.782;9.932;2023-05-10T01:49:29;3.47;;;1.80;;
10645;SDS011;5371;49.782;9.932;2023-05-10T01:51:59;1.42;;;1.33;;
10645;SDS011;5371;49.782;9.932;2023-05-10T01:54:29;1.70;;;1.60;;
10645;SDS011;5371;49.782;9.932;2023-05-10T01:56:58;1.48;;;1.38;;
10645;SDS011;5371;49.782;9.932;2023-05-10T01:59:29;1.35;;;1.15;;
10645;SDS011;5371;49.782;9.932;2023-05-10T02:01:59;1.48;;;1.30;;
10645;SDS011;5371;49.782;9.932;2023-05-10T02:04:28;1.38;;;1.20;;
10645;SDS011;5371;49.782;9.932;2023-05-10T02:06:55;1.20;;;1.10;;
10645;SDS011;5371;49.782;9.932;2023-05-10T02:09:22;1.20;;;1.10;;
10645;SDS011;5371;49.782;9.932;2023-05-10T02:11:50;1.10;;;1.00;;
10645;SDS011;5371;49.782;9.932;2023-05-10T02:14:17;1.00;;;1.00;;
10645;SDS011;5371;49.782;9.932;2023-05-10T02:16:45;1.13;;;1.00;;
10645;SDS011;5371;49.782;9.932;2023-05-10T02:19:14;1.33;;;1.10;;
10645;SDS011;5371;49.782;9.932;2023-05-10T02:21:41;1.42;;;1.15;;
10645;SDS011;5371;49.782;9.932;2023-05-10T02:24:08;2.13;;;1.08;;
10645;SDS011;5371;49.782;9.932;2023-05-10T02:26:36;4.30;;;1.00;;
10645;SDS011;5371;49.782;9.932;2023-05-10T02:29:04;1.30;;;1.00;;
10645;SDS011;5371;49.782;9.932;2023-05-10T02:31:32;1.00;;;0.80;;
10645;SDS011;5371;49.782;9.932;2023-05-10T02:34:00;2.13;;;1.40;;
10645;SDS011;5371;49.782;9.932;2023-05-10T02:36:29;0.80;;;0.80;;
10645;SDS011;5371;49.782;9.932;2023-05-10T02:38:57;1.70;;;0.90;;
10645;SDS011;5371;49.782;9.932;2023-05-10T02:41:25;0.80;;;0.80;;
10645;SDS011;5371;49.782;9.932;2023-05-10T02:43:53;0.95;;;0.80;;
10645;SDS011;5371;49.782;9.932;2023-05-10T02:46:23;2.13;;;0.90;;
10645;SDS011;5371;49.782;9.932;2023-05-10T02:48:50;2.08;;;0.77;;
10645;SDS011;5371;49.782;9.932;2023-05-10T02:51:17;0.80;;;0.80;;
10645;SDS011;5371;49.782;9.932;2023-05-10T02:53:46;5.05;;;0.90;;
10645;SDS011;5371;49.782;9.932;2023-05-10T02:56:14;0.90;;;0.90;;
10645;SDS011;5371;49.782;9.932;2023-05-10T02:58:43;2.25;;;0.80;;
10645;SDS011;5371;49.782;9.932;2023-05-10T03:01:10;0.98;;;0.85;;
10645;SDS011;5371;49.782;9.932;2023-05-10T03:03:37;0.90;;;0.80;;
10645;SDS011;5371;49.782;9.932;2023-05-10T03:06:04;2.05;;;0.95;;
10645;SDS011;5371;49.782;9.932;2023-05-10T03:08:31;3.90;;;1.20;;
10645;SDS011;5371;49.782;9.932;2023-05-10T03:11:05;1.25;;;1.00;;
10645;SDS011;5371;49.782;9.932;2023-05-10T03:13:43;0.80;;;0.80;;
10645;SDS011;5371;49.782;9.932;2023-05-10T03:16:15;0.80;;;0.80;;
10645;SDS011;5371;49.782;9.932;2023-05-10T03:18:44;0.90;;;0.90;;
10645;SDS011;5371;49.782;9.932;2023-05-10T03:21:14;2.58;;;0.80;;
10645;SDS011;5371;49.782;9.932;2023-05-10T03:23:46;2.03;;;1.00;;
10645;SDS011;5371;49.782;9.932;2023-05-10T03:26:17;1.48;;;0.82;;
10645;SDS011;5371;49.782;9.932;2023-05-10T03:28:46;1.17;;;0.80;;
10645;SDS011;5371;49.782;9.932;2023-05-10T03:31:14;1.77;;;0.80;;
10645;SDS011;5371;49.782;9.932;2023-05-10T03:33:45;2.75;;;0.90;;
10645;SDS011;5371;49.782;9.932;2023-05-10T03:36:13;1.65;;;0.77;;
10645;SDS011;5371;49.782;9.932;2023-05-10T03:38:40;1.40;;;0.90;;
10645;SDS011;5371;49.782;9.932;2023-05-10T03:41:07;2.72;;;0.98;;
10645;SDS011;5371;49.782;9.932;2023-05-10T03:43:35;0.95;;;0.80;;
10645;SDS011;5371;49.782;9.932;2023-05-10T03:46:02;6.97;;;0.90;;
10645;SDS011;5371;49.782;9.932;2023-05-10T03:48:29;0.80;;;0.80;;
10645;SDS011;5371;49.782;9.932;2023-05-10T03:50:56;0.80;;;0.80;;
10645;SDS011;5371;49.782;9.932;2023-05-10T03:53:24;0.90;;;0.80;;
10645;SDS011;5371;49.782;9.932;2023-05-10T03:55:52;1.25;;;0.85;;
10645;SDS011;5371;49.782;9.932;2023-05-10T03:58:19;1.00;;;0.90;;
10645;SDS011;5371;49.782;9.932;2023-05-10T04:00:47;1.50;;;0.90;;
10645;SDS011;5371;49.782;9.932;2023-05-10T04:03:14;1.98;;;0.80;;
10645;SDS011;5371;49.782;9.932;2023-05-10T04:05:41;3.92;;;0.95;;
10645;SDS011;5371;49.782;9.932;2023-05-10T04:08:08;0.98;;;0.80;;
10645;SDS011;5371;49.782;9.932;2023-05-10T04:10:35;1.23;;;0.90;;
10645;SDS011;5371;49.782;9.932;2023-05-10T04:13:02;0.80;;;0.80;;
10645;SDS011;5371;49.782;9.932;2023-05-10T04:15:29;3.00;;;1.00;;
10645;SDS011;5371;49.782;9.932;2023-05-10T04:17:57;2.00;;;0.80;;
10645;SDS011;5371;49.782;9.932;2023-05-10T04:20:24;2.95;;;0.90;;
10645;SDS011;5371;49.782;9.932;2023-05-10T04:22:50;0.90;;;0.90;;
10645;SDS011;5371;49.782;9.932;2023-05-10T04:25:17;1.10;;;1.00;;
10645;SDS011;5371;49.782;9.932;2023-05-10T04:27:44;3.33;;;1.00;;
10645;SDS011;5371;49.782;9.932;2023-05-10T04:30:11;2.05;;;0.90;;
10645;SDS011;5371;49.782;9.932;2023-05-10T04:32:38;1.13;;;1.02;;
10645;SDS011;5371;49.782;9.932;2023-05-10T04:35:07;2.97;;;0.95;;
10645;SDS011;5371;49.782;9.932;2023-05-10T04:37:35;1.10;;;0.90;;
10645;SDS011;5371;49.782;9.932;2023-05-10T04:40:02;1.00;;;0.95;;
10645;SDS011;5371;49.782;9.932;2023-05-10T04:42:31;1.50;;;0.98;;
10645;SDS011;5371;49.782;9.932;2023-05-10T04:44:58;3.40;;;1.00;;
10645;SDS011;5371;49.782;9.932;2023-05-10T04:47:25;2.60;;;0.98;;
10645;SDS011;5371;49.782;9.932;2023-05-10T04:49:52;0.95;;;0.90;;
10645;SDS011;5371;49.782;9.932;2023-05-10T04:52:20;1.98;;;1.00;;
10645;SDS011;5371;49.782;9.932;2023-05-10T04:54:47;4.15;;;1.10;;
10645;SDS011;5371;49.782;9.932;2023-05-10T04:57:13;1.02;;;0.90;;
10645;SDS011;5371;49.782;9.932;2023-05-10T04:59:40;2.47;;;0.85;;
10645;SDS011;5371;49.782;9.932;2023-05-10T05:02:07;1.20;;;1.10;;
10645;SDS011;5371;49.782;9.932;2023-05-10T05:04:34;1.98;;;1.00;;
10645;SDS011;5371;49.782;9.932;2023-05-10T05:07:01;1.00;;;0.90;;
10645;SDS011;5371;49.782;9.932;2023-05-10T05:09:29;2.60;;;1.00;;
10645;SDS011;5371;49.782;9.932;2023-05-10T05:11:57;2.53;;;1.20;;
10645;SDS011;5371;49.782;9.932;2023-05-10T05:14:24;4.60;;;1.50;;
10645;SDS011;5371;49.782;9.932;2023-05-10T05:16:51;1.00;;;1.00;;
10645;SDS011;5371;49.782;9.932;2023-05-10T05:19:18;1.50;;;1.00;;
10645;SDS011;5371;49.782;9.932;2023-05-10T05:21:45;1.17;;;1.00;;
10645;SDS011;5371;49.782;9.932;2023-05-10T05:24:12;1.02;;;0.95;;
10645;SDS011;5371;49.782;9.932;2023-05-10T05:26:40;1.20;;;1.10;;
10645;SDS011;5371;49.782;9.932;2023-05-10T05:29:07;1.10;;;1.00;;
10645;SDS011;5371;49.782;9.932;2023-05-10T05:31:34;1.35;;;0.98;;
10645;SDS011;5371;49.782;9.932;2023-05-10T05:34:02;1.10;;;1.00;;
10645;SDS011;5371;49.782;9.932;2023-05-10T05:36:30;2.00;;;0.90;;
10645;SDS011;5371;49.782;9.932;2023-05-10T05:38:58;1.10;;;1.00;;
10645;SDS011;5371;49.782;9.932;2023-05-10T05:41:24;1.90;;;1.10;;
10645;SDS011;5371;49.782;9.932;2023-05-10T05:43:53;5.15;;;1.30;;
10645;SDS011;5371;49.782;9.932;2023-05-10T05:46:20;2.08;;;1.05;;
10645;SDS011;5371;49.782;9.932;2023-05-10T05:48:47;3.20;;;0.93;;
10645;SDS011;5371;49.782;9.932;2023-05-10T05:51:13;1.73;;;1.00;;
10645;SDS011;5371;49.782;9.932;2023-05-10T05:53:40;4.40;;;1.35;;
10645;SDS011;5371;49.782;9.932;2023-05-10T05:56:07;1.50;;;1.13;;
10645;SDS011;5371;49.782;9.932;2023-05-10T05:58:34;3.40;;;1.10;;
10645;SDS011;5371;49.782;9.932;2023-05-10T06:01:03;1.35;;;1.20;;
10645;SDS011;5371;49.782;9.932;2023-05-10T06:03:30;1.27;;;1.17;;
10645;SDS011;5371;49.782;9.932;2023-05-10T06:05:59;2.88;;;1.30;;
10645;SDS011;5371;49.782;9.932;2023-05-10T06:08:26;4.57;;;1.30;;
10645;SDS011;5371;49.782;9.932;2023-05-10T06:10:52;2.65;;;1.20;;
10645;SDS011;5371;49.782;9.932;2023-05-10T06:13:19;2.65;;;1.20;;
10645;SDS011;5371;49.782;9.932;2023-05-10T06:15:46;3.70;;;1.10;;
10645;SDS011;5371;49.782;9.932;2023-05-10T06:18:15;2.17;;;1.30;;
10645;SDS011;5371;49.782;9.932;2023-05-10T06:20:41;4.97;;;1.40;;
10645;SDS011;5371;49.782;9.932;2023-05-10T06:23:09;2.00;;;1.13;;
10645;SDS011;5371;49.782;9.932;2023-05-10T06:25:36;2.65;;;1.20;;
10645;SDS011;5371;49.782;9.932;2023-05-10T06:28:03;1.63;;;1.25;;
10645;SDS011;5371;49.782;9.932;2023-05-10T06:30:30;1.45;;;1.35;;
10645;SDS011;5371;49.782;9.932;2023-05-10T06:32:57;1.35;;;1.25;;
10645;SDS011;5371;49.782;9.932;2023-05-10T06:35:25;3.08;;;1.23;;
10645;SDS011;5371;49.782;9.932;2023-05-10T06:37:52;3.13;;;1.58;;
10645;SDS011;5371;49.782;9.932;2023-05-10T06:40:19;1.42;;;1.15;;
10645;SDS011;5371;49.782;9.932;2023-05-10T06:42:47;1.48;;;1.30;;
10645;SDS011;5371;49.782;9.932;2023-05-10T06:45:14;1.45;;;1.35;;
10645;SDS011;5371;49.782;9.932;2023-05-10T06:47:41;3.13;;;1.52;;
10645;SDS011;5371;49.782;9.932;2023-05-10T06:50:08;2.10;;;1.30;;
10645;SDS011;5371;49.782;9.932;2023-05-10T06:52:37;3.85;;;1.30;;
10645;SDS011;5371;49.782;9.932;2023-05-10T06:55:05;5.63;;;1.60;;
10645;SDS011;5371;49.782;9.932;2023-05-10T06:57:33;2.88;;;1.40;;
10645;SDS011;5371;49.782;9.932;2023-05-10T07:00:00;4.38;;;1.55;;
10645;SDS011;5371;49.782;9.932;2023-05-10T07:02:29;1.80;;;1.33;;
10645;SDS011;5371;49.782;9.932;2023-05-10T07:04:56;3.58;;;1.50;;
10645;SDS011;5371;49.782;9.932;2023-05-10T07:07:23;2.20;;;1.40;;
10645;SDS011;5371;49.782;9.932;2023-05-10T07:09:51;3.75;;;1.35;;
10645;SDS011;5371;49.782;9.932;2023-05-10T07:12:18;2.17;;;1.30;;
10645;SDS011;5371;49.782;9.932;2023-05-10T07:14:45;2.78;;;1.40;;
10645;SDS011;5371;49.782;9.932;2023-05-10T07:17:12;2.50;;;1.40;;
10645;SDS011;5371;49.782;9.932;2023-05-10T07:19:39;4.22;;;1.50;;
10645;SDS011;5371;49.782;9.932;2023-05-10T07:22:06;2.95;;;1.60;;
10645;SDS011;5371;49.782;9.932;2023-05-10T07:24:33;2.38;;;1.60;;
10645;SDS011;5371;49.782;9.932;2023-05-10T07:27:01;3.50;;;1.50;;
10645;SDS011;5371;49.782;9.932;2023-05-10T07:29:28;1.95;;;1.52;;
10645;SDS011;5371;49.782;9.932;2023-05-10T07:31:55;3.05;;;1.52;;
10645;SDS011;5371;49.782;9.932;2023-05-10T07:34:22;2.58;;;1.60;;
10645;SDS011;5371;49.782;9.932;2023-05-10T07:36:49;2.10;;;1.60;;
10645;SDS011;5371;49.782;9.932;2023-05-10T07:39:16;3.47;;;1.65;;
10645;SDS011;5371;49.782;9.932;2023-05-10T07:41:43;2.13;;;1.80;;
10645;SDS011;5371;49.782;9.932;2023-05-10T07:44:11;5.20;;;1.67;;
10645;SDS011;5371;49.782;9.932;2023-05-10T07:46:38;4.53;;;1.83;;
10645;SDS011;5371;49.782;9.932;2023-05-10T07:49:05;1.70;;;1.60;;
10645;SDS011;5371;49.782;9.932;2023-05-10T07:51:32;3.30;;;1.80;;
10645;SDS011;5371;49.782;9.932;2023-05-10T07:53:59;3.83;;;1.70;;
10645;SDS011;5371;49.782;9.932;2023-05-10T07:56:28;5.97;;;1.70;;
10645;SDS011;5371;49.782;9.932;2023-05-10T07:58:57;2.20;;;1.60;;
10645;SDS011;5371;49.782;9.932;2023-05-10T08:01:25;3.28;;;1.73;;
10645;SDS011;5371;49.782;9.932;2023-05-10T08:03:53;4.10;;;2.70;;
10645;SDS011;5371;49.782;9.932;2023-05-10T08:06:20;2.63;;;1.40;;
10645;SDS011;5371;49.782;9.932;2023-05-10T08:08:47;4.85;;;1.70;;
10645;SDS011;5371;49.782;9.932;2023-05-10T08:11:16;3.35;;;1.67;;
10645;SDS011;5371;49.782;9.932;2023-05-10T08:13:43;3.85;;;1.50;;
10645;SDS011;5371;49.782;9.932;2023-05-10T08:16:10;1.65;;;1.30;;
10645;SDS011;5371;49.782;9.932;2023-05-10T08:18:38;3.65;;;1.50;;
10645;SDS011;5371;49.782;9.932;2023-05-10T08:21:06;3.20;;;1.52;;
10645;SDS011;5371;49.782;9.932;2023-05-10T08:23:33;2.58;;;1.65;;
10645;SDS011;5371;49.782;9.932;2023-05-10T08:26:00;4.57;;;1.55;;
10645;SDS011;5371;49.782;9.932;2023-05-10T08:28:27;2.28;;;1.55;;
10645;SDS011;5371;49.782;9.932;2023-05-10T08:30:54;2.78;;;1.50;;
10645;SDS011;5371;49.782;9.932;2023-05-10T08:33:21;5.88;;;1.95;;
10645;SDS011;5371;49.782;9.932;2023-05-10T08:35:49;4.00;;;1.60;;
10645;SDS011;5371;49.782;9.932;2023-05-10T08:38:16;1.55;;;1.23;;
10645;SDS011;5371;49.782;9.932;2023-05-10T08:40:44;2.65;;;1.63;;
10645;SDS011;5371;49.782;9.932;2023-05-10T08:43:12;2.75;;;1.60;;
10645;SDS011;5371;49.782;9.932;2023-05-10T08:45:41;4.50;;;1.70;;
10645;SDS011;5371;49.782;9.932;2023-05-10T08:48:10;5.20;;;1.80;;
10645;SDS011;5371;49.782;9.932;2023-05-10T08:50:38;5.50;;;1.88;;
10645;SDS011;5371;49.782;9.932;2023-05-10T08:53:09;5.82;;;1.60;;
10645;SDS011;5371;49.782;9.932;2023-05-10T08:55:36;5.07;;;1.70;;
10645;SDS011;5371;49.782;9.932;2023-05-10T08:58:04;4.97;;;1.75;;
10645;SDS011;5371;49.782;9.932;2023-05-10T09:00:31;4.20;;;1.70;;
10645;SDS011;5371;49.782;9.932;2023-05-10T09:02:59;6.22;;;1.70;;
10645;SDS011;5371;49.782;9.932;2023-05-10T09:05:26;2.00;;;1.50;;
10645;SDS011;5371;49.782;9.932;2023-05-10T09:07:53;3.05;;;1.60;;
10645;SDS011;5371;49.782;9.932;2023-05-10T09:10:21;3.22;;;1.48;;
10645;SDS011;5371;49.782;9.932;2023-05-10T09:12:51;4.95;;;1.83;;
10645;SDS011;5371;49.782;9.932;2023-05-10T09:15:18;4.22;;;1.95;;
10645;SDS011;5371;49.782;9.932;2023-05-10T09:17:45;6.00;;;1.70;;
10645;SDS011;5371;49.782;9.932;2023-05-10T09:20:12;4.03;;;1.83;;
10645;SDS011;5371;49.782;9.932;2023-05-10T09:22:39;3.33;;;2.03;;
10645;SDS011;5371;49.782;9.932;2023-05-10T09:25:06;2.85;;;1.85;;
10645;SDS011;5371;49.782;9.932;2023-05-10T09:27:37;4.78;;;1.80;;
10645;SDS011;5371;49.782;9.932;2023-05-10T09:30:06;4.18;;;1.95;;
10645;SDS011;5371;49.782;9.932;2023-05-10T09:32:37;3.13;;;1.88;;
10645;SDS011;5371;49.782;9.932;2023-05-10T09:35:08;3.53;;;1.95;;
10645;SDS011;5371;49.782;9.932;2023-05-10T09:37:35;4.95;;;2.83;;
10645;SDS011;5371;49.782;9.932;2023-05-10T09:40:05;2.75;;;1.70;;
10645;SDS011;5371;49.782;9.932;2023-05-10T09:42:34;5.85;;;1.90;;
10645;SDS011;5371;49.782;9.932;2023-05-10T09:45:04;3.28;;;1.83;;
10645;SDS011;5371;49.782;9.932;2023-05-10T09:47:31;2.22;;;1.60;;
10645;SDS011;5371;49.782;9.932;2023-05-10T09:49:59;2.90;;;1.55;;
10645;SDS011;5371;49.782;9.932;2023-05-10T09:52:29;3.22;;;1.60;;
10645;SDS011;5371;49.782;9.932;2023-05-10T09:54:57;2.58;;;1.60;;
10645;SDS011;5371;49.782;9.932;2023-05-10T09:57:24;2.33;;;1.60;;
10645;SDS011;5371;49.782;9.932;2023-05-10T09:59:52;6.20;;;1.70;;
10645;SDS011;5371;49.782;9.932;2023-05-10T10:02:21;2.55;;;1.55;;
10645;SDS011;5371;49.782;9.932;2023-05-10T10:04:55;2.78;;;1.50;;
10645;SDS011;5371;49.782;9.932;2023-05-10T10:07:22;1.92;;;1.55;;
10645;SDS011;5371;49.782;9.932;2023-05-10T10:09:51;3.05;;;1.75;;
10645;SDS011;5371;49.782;9.932;2023-05-10T10:12:18;2.33;;;1.58;;
10645;SDS011;5371;49.782;9.932;2023-05-10T10:14:46;1.98;;;1.60;;
10645;SDS011;5371;49.782;9.932;2023-05-10T10:17:14;2.50;;;1.50;;
10645;SDS011;5371;49.782;9.932;2023-05-10T10:19:43;1.67;;;1.30;;
10645;SDS011;5371;49.782;9.932;2023-05-10T10:22:11;1.45;;;1.30;;
10645;SDS011;5371;49.782;9.932;2023-05-10T10:24:38;4.47;;;2.10;;
10645;SDS011;5371;49.782;9.932;2023-05-10T10:27:12;2.78;;;1.50;;
10645;SDS011;5371;49.782;9.932;2023-05-10T10:29:48;1.60;;;1.50;;
10645;SDS011;5371;49.782;9.932;2023-05-10T10:32:21;2.30;;;1.40;;
10645;SDS011;5371;49.782;9.932;2023-05-10T10:34:54;1.50;;;1.40;;
10645;SDS011;5371;49.782;9.932;2023-05-10T10:37:22;1.67;;;1.38;;
10645;SDS011;5371;49.782;9.932;2023-05-10T10:39:49;1.90;;;1.30;;
10645;SDS011;5371;49.782;9.932;2023-05-10T10:45:13;3.03;;;1.40;;
10645;SDS011;5371;49.782;9.932;2023-05-10T10:47:40;1.92;;;1.40;;
10645;SDS011;5371;49.782;9.932;2023-05-10T10:50:09;4.38;;;1.30;;
10645;SDS011;5371;49.782;9.932;2023-05-10T10:52:38;3.75;;;1.30;;
10645;SDS011;5371;49.782;9.932;2023-05-10T10:55:06;2.28;;;1.30;;
10645;SDS011;5371;49.782;9.932;2023-05-10T10:57:45;1.90;;;1.20;;
10645;SDS011;5371;49.782;9.932;2023-05-10T11:00:24;3.88;;;1.25;;
10645;SDS011;5371;49.782;9.932;2023-05-10T11:02:57;2.03;;;1.40;;
10645;SDS011;5371;49.782;9.932;2023-05-10T11:08:12;2.70;;;1.20;;
10645;SDS011;5371;49.782;9.932;2023-05-10T11:10:49;2.90;;;1.45;;
10645;SDS011;5371;49.782;9.932;2023-05-10T11:13:26;2.42;;;1.20;;
10645;SDS011;5371;49.782;9.932;2023-05-10T11:15:55;1.48;;;1.30;;
10645;SDS011;5371;49.782;9.932;2023-05-10T11:18:24;1.83;;;1.40;;
10645;SDS011;5371;49.782;9.932;2023-05-10T11:20:55;2.83;;;1.50;;
10645;SDS011;5371;49.782;9.932;2023-05-10T11:23:29;2.72;;;1.35;;
10645;SDS011;5371;49.782;9.932;2023-05-10T11:25:57;1.63;;;1.20;;
10645;SDS011;5371;49.782;9.932;2023-05-10T11:28:24;3.08;;;1.38;;
10645;SDS011;5371;49.782;9.932;2023-05-10T11:30:52;2.25;;;1.17;;
10645;SDS011;5371;49.782;9.932;2023-05-10T11:33:19;1.50;;;1.40;;
10645;SDS011;5371;49.782;9.932;2023-05-10T11:35:46;2.05;;;1.30;;
10645;SDS011;5371;49.782;9.932;2023-05-10T11:38:15;1.52;;;1.10;;
10645;SDS011;5371;49.782;9.932;2023-05-10T11:40:42;2.53;;;1.30;;
10645;SDS011;5371;49.782;9.932;2023-05-10T11:43:09;2.08;;;1.27;;
10645;SDS011;5371;49.782;9.932;2023-05-10T11:45:42;3.40;;;1.27;;
10645;SDS011;5371;49.782;9.932;2023-05-10T11:48:09;2.03;;;1.50;;
10645;SDS011;5371;49.782;9.932;2023-05-10T11:50:36;3.20;;;2.00;;
10645;SDS011;5371;49.782;9.932;2023-05-10T11:53:02;2.58;;;1.40;;
10645;SDS011;5371;49.782;9.932;2023-05-10T11:55:31;3.20;;;1.20;;
10645;SDS011;5371;49.782;9.932;2023-05-10T11:58:00;1.65;;;1.50;;
10645;SDS011;5371;49.782;9.932;2023-05-10T12:00:28;5.65;;;1.35;;
10645;SDS011;5371;49.782;9.932;2023-05-10T12:02:55;2.58;;;1.23;;
10645;SDS011;5371;49.782;9.932;2023-05-10T12:05:22;1.80;;;1.15;;
10645;SDS011;5371;49.782;9.932;2023-05-10T12:07:49;2.08;;;1.30;;
10645;SDS011;5371;49.782;9.932;2023-05-10T12:10:16;4.10;;;1.35;;
10645;SDS011;5371;49.782;9.932;2023-05-10T12:12:45;4.07;;;1.30;;
10645;SDS011;5371;49.782;9.932;2023-05-10T12:15:16;2.22;;;1.20;;
10645;SDS011;5371;49.782;9.932;2023-05-10T12:17:45;4.07;;;1.58;;
10645;SDS011;5371;49.782;9.932;2023-05-10T12:20:13;2.03;;;1.20;;
10645;SDS011;5371;49.782;9.932;2023-05-10T12:22:40;2.72;;;1.08;;
10645;SDS011;5371;49.782;9.932;2023-05-10T12:25:10;2.85;;;1.20;;
10645;SDS011;5371;49.782;9.932;2023-05-10T12:27:37;2.97;;;1.30;;
10645;SDS011;5371;49.782;9.932;2023-05-10T12:30:07;3.15;;;1.20;;
10645;SDS011;5371;49.782;9.932;2023-05-10T12:32:38;4.20;;;1.35;;
10645;SDS011;5371;49.782;9.932;2023-05-10T12:35:06;2.90;;;1.30;;
10645;SDS011;5371;49.782;9.932;2023-05-10T12:37:33;2.55;;;1.30;;
10645;SDS011;5371;49.782;9.932;2023-05-10T12:40:07;2.60;;;1.20;;
10645;SDS011;5371;49.782;9.932;2023-05-10T12:42:36;3.42;;;1.13;;
10645;SDS011;5371;49.782;9.932;2023-05-10T12:45:03;1.80;;;1.20;;
10645;SDS011;5371;49.782;9.932;2023-05-10T12:47:33;3.25;;;1.10;;
10645;SDS011;5371;49.782;9.932;2023-05-10T12:50:00;1.48;;;1.13;;
10645;SDS011;5371;49.782;9.932;2023-05-10T12:52:29;2.72;;;1.40;;
10645;SDS011;5371;49.782;9.932;2023-05-10T12:54:57;5.47;;;1.70;;
10645;SDS011;5371;49.782;9.932;2023-05-10T12:57:25;4.13;;;1.58;;
10645;SDS011;5371;49.782;9.932;2023-05-10T12:59:51;2.78;;;1.50;;
10645;SDS011;5371;49.782;9.932;2023-05-10T13:02:20;3.53;;;1.80;;
10645;SDS011;5371;49.782;9.932;2023-05-10T13:04:48;5.63;;;1.80;;
10645;SDS011;5371;49.782;9.932;2023-05-10T13:07:15;3.47;;;1.90;;
10645;SDS011;5371;49.782;9.932;2023-05-10T13:09:42;3.55;;;1.70;;
10645;SDS011;5371;49.782;9.932;2023-05-10T13:12:09;3.95;;;1.80;;
10645;SDS011;5371;49.782;9.932;2023-05-10T13:14:36;3.65;;;1.70;;
10645;SDS011;5371;49.782;9.932;2023-05-10T13:17:06;6.93;;;1.73;;
10645;SDS011;5371;49.782;9.932;2023-05-10T13:19:37;2.00;;;1.65;;
10645;SDS011;5371;49.782;9.932;2023-05-10T13:22:04;9.10;;;1.92;;
10645;SDS011;5371;49.782;9.932;2023-05-10T13:24:31;2.92;;;1.52;;
10645;SDS011;5371;49.782;9.932;2023-05-10T13:26:58;2.53;;;1.77;;
10645;SDS011;5371;49.782;9.932;2023-05-10T13:29:25;4.45;;;1.90;;
10645;SDS011;5371;49.782;9.932;2023-05-10T13:31:52;5.38;;;4.50;;
10645;SDS011;5371;49.782;9.932;2023-05-10T13:34:19;3.00;;;1.83;;
10645;SDS011;5371;49.782;9.932;2023-05-10T13:36:48;2.75;;;1.80;;
10645;SDS011;5371;49.782;9.932;2023-05-10T13:39:15;3.13;;;1.80;;
10645;SDS011;5371;49.782;9.932;2023-05-10T13:41:42;2.45;;;1.63;;
10645;SDS011;5371;49.782;9.932;2023-05-10T13:44:09;2.70;;;1.80;;
10645;SDS011;5371;49.782;9.932;2023-05-10T13:46:38;5.45;;;2.30;;
10645;SDS011;5371;49.782;9.932;2023-05-10T13:49:05;1.92;;;1.73;;
10645;SDS011;5371;49.782;9.932;2023-05-10T13:51:32;2.20;;;1.63;;
10645;SDS011;5371;49.782;9.932;2023-05-10T13:54:01;3.30;;;1.90;;
10645;SDS011;5371;49.782;9.932;2023-05-10T13:56:28;1.90;;;1.50;;
10645;SDS011;5371;49.782;9.932;2023-05-10T13:58:55;2.63;;;1.40;;
10645;SDS011;5371;49.782;9.932;2023-05-10T14:01:23;4.47;;;2.08;;
10645;SDS011;5371;49.782;9.932;2023-05-10T14:03:50;2.08;;;1.70;;
10645;SDS011;5371;49.782;9.932;2023-05-10T14:06:17;3.25;;;1.80;;
10645;SDS011;5371;49.782;9.932;2023-05-10T14:08:44;3.38;;;2.10;;
10645;SDS011;5371;49.782;9.932;2023-05-10T14:11:12;3.65;;;1.88;;
10645;SDS011;5371;49.782;9.932;2023-05-10T14:13:39;2.15;;;1.70;;
10645;SDS011;5371;49.782;9.932;2023-05-10T14:16:06;2.55;;;2.20;;
10645;SDS011;5371;49.782;9.932;2023-05-10T14:18:33;2.10;;;1.90;;
10645;SDS011;5371;49.782;9.932;2023-05-10T14:21:01;3.53;;;2.20;;
10645;SDS011;5371;49.782;9.932;2023-05-10T14:23:29;3.47;;;2.20;;
10645;SDS011;5371;49.782;9.932;2023-05-10T14:25:56;7.20;;;2.05;;
10645;SDS011;5371;49.782;9.932;2023-05-10T14:28:24;3.63;;;2.35;;
10645;SDS011;5371;49.782;9.932;2023-05-10T14:30:51;8.18;;;2.40;;
10645;SDS011;5371;49.782;9.932;2023-05-10T14:33:19;2.67;;;1.98;;
10645;SDS011;5371;49.782;9.932;2023-05-10T14:35:46;2.55;;;2.10;;
10645;SDS011;5371;49.782;9.932;2023-05-10T14:38:14;2.92;;;2.10;;
10645;SDS011;5371;49.782;9.932;2023-05-10T14:40:41;3.22;;;2.28;;
10645;SDS011;5371;49.782;9.932;2023-05-10T14:43:08;3.17;;;2.30;;
10645;SDS011;5371;49.782;9.932;2023-05-10T14:45:37;4.07;;;2.20;;
10645;SDS011;5371;49.782;9.932;2023-05-10T14:48:04;2.72;;;1.98;;
10645;SDS011;5371;49.782;9.932;2023-05-10T14:50:31;6.97;;;2.30;;
10645;SDS011;5371;49.782;9.932;2023-05-10T14:52:58;4.43;;;2.30;;
10645;SDS011;5371;49.782;9.932;2023-05-10T14:55:25;2.70;;;1.90;;
10645;SDS011;5371;49.782;9.932;2023-05-10T14:57:52;2.22;;;1.75;;
10645;SDS011;5371;49.782;9.932;2023-05-10T15:00:20;2.90;;;2.10;;
10645;SDS011;5371;49.782;9.932;2023-05-10T15:02:49;3.75;;;2.20;;
10645;SDS011;5371;49.782;9.932;2023-05-10T15:05:16;3.78;;;1.90;;
10645;SDS011;5371;49.782;9.932;2023-05-10T15:07:43;5.65;;;2.20;;
10645;SDS011;5371;49.782;9.932;2023-05-10T15:10:10;3.30;;;2.10;;
10645;SDS011;5371;49.782;9.932;2023-05-10T15:12:39;3.78;;;2.20;;